Time;durP1;ratioP1;P1;durP2;ratioP2;P2;SDS_P1;SDS_P2;PMS_P1;PMS_P2;Temp;Humidity;BMP_temperature;BMP_pressure;BME280_temperature;BME280_humidity;BME280_pressure;Samples;Min_cycle;Max_cycle;Signal;HPM_P1;HPM_P2
2021/09/05 21:39:32;;;;;;;5.85;3.25;;;;;;;10.37;60.67;101004.09;5020566;28;106084;-67
2021/09/05 21:41:57;;;;;;;5.85;3.40;;;;;;;10.37;61.26;101009.41;5026428;27;105980;-68
2021/09/05 21:44:23;;;;;;;10.43;3.63;;;;;;;10.39;61.49;101010.13;5025971;27;106265;-67
2021/09/05 21:46:49;;;;;;;6.07;3.33;;;;;;;10.42;61.83;101008.97;5022974;27;107031;-66
2021/09/05 21:49:14;;;;;;;8.30;3.38;;;;;;;10.44;62.08;101010.50;5023220;27;106299;-66
2021/09/05 21:51:40;;;;;;;10.57;3.85;;;;;;;10.47;62.45;101009.34;5024020;27;106385;-67
2021/09/05 21:54:05;;;;;;;6.68;3.75;;;;;;;10.50;62.83;101009.06;5019322;27;106342;-68
2021/09/05 21:56:30;;;;;;;8.75;3.78;;;;;;;10.54;62.74;101012.25;5004726;28;106117;-69
2021/09/05 21:58:56;;;;;;;6.60;3.50;;;;;;;10.56;63.00;101013.78;5005043;28;106556;-69
2021/09/05 22:01:21;;;;;;;6.50;3.58;;;;;;;10.58;63.12;101016.31;5006235;28;105944;-68
2021/09/05 22:03:46;;;;;;;7.18;3.45;;;;;;;10.57;63.12;101020.81;5004614;28;106196;-67
2021/09/05 22:06:12;;;;;;;6.72;3.33;;;;;;;10.58;63.28;101018.97;5005232;28;105817;-67
2021/09/05 22:08:38;;;;;;;6.95;3.85;;;;;;;10.59;63.75;101012.66;5005156;28;106265;-67
2021/09/05 22:11:04;;;;;;;7.90;3.70;;;;;;;10.61;63.82;101016.03;5005945;28;105844;-68
2021/09/05 22:13:29;;;;;;;5.88;3.70;;;;;;;10.63;63.83;101011.38;5005089;28;106057;-68
2021/09/05 22:15:54;;;;;;;6.93;3.85;;;;;;;10.63;63.90;101024.69;5005007;28;105949;-69
2021/09/05 22:18:20;;;;;;;5.80;3.33;;;;;;;10.62;64.12;101020.34;5004836;28;105905;-68
2021/09/05 22:20:45;;;;;;;4.55;3.00;;;;;;;10.63;64.21;101024.69;5005945;28;106012;-68
2021/09/05 22:23:11;;;;;;;6.05;3.40;;;;;;;10.61;64.10;101022.19;5005179;28;106697;-68
2021/09/05 22:25:36;;;;;;;6.72;3.40;;;;;;;10.58;64.29;101017.16;5014808;28;105778;-67
2021/09/05 22:28:01;;;;;;;7.03;3.60;;;;;;;10.58;64.31;101017.16;5005240;28;106586;-68
2021/09/05 22:30:27;;;;;;;6.65;3.40;;;;;;;10.58;64.50;101024.28;5005532;28;105934;-67
2021/09/05 22:32:53;;;;;;;6.97;2.88;;;;;;;10.59;64.63;101023.31;5006391;28;106218;-70
2021/09/05 22:35:19;;;;;;;6.03;3.55;;;;;;;10.58;64.80;101021.63;5015766;28;108097;-67
2021/09/05 22:37:45;;;;;;;5.28;3.40;;;;;;;10.55;64.76;101028.13;5024521;27;105986;-67
2021/09/05 22:40:10;;;;;;;7.38;3.60;;;;;;;10.53;64.74;101029.25;5025608;27;105990;-68
2021/09/05 22:42:36;;;;;;;7.70;3.47;;;;;;;10.52;64.82;101027.56;5024880;27;106072;-68
2021/09/05 22:45:02;;;;;;;6.63;3.30;;;;;;;10.49;64.91;101026.88;5024858;28;106021;-68
2021/09/05 22:47:28;;;;;;;8.48;3.97;;;;;;;10.47;65.04;101034.19;5024445;28;106035;-68
2021/09/05 22:49:53;;;;;;;6.72;3.83;;;;;;;10.44;65.14;101031.81;5017279;27;106294;-67
2021/09/05 22:52:18;;;;;;;6.82;3.42;;;;;;;10.42;65.06;101041.78;5011314;28;106120;-66
2021/09/05 22:54:44;;;;;;;7.50;3.38;;;;;;;10.39;65.37;101033.22;5011076;28;106021;-67
2021/09/05 22:57:09;;;;;;;6.60;3.65;;;;;;;10.36;65.35;101029.06;5011012;28;106060;-67
2021/09/05 22:59:35;;;;;;;6.03;4.00;;;;;;;10.31;65.11;101034.78;5011948;28;106041;-66
2021/09/05 23:02:00;;;;;;;7.28;3.67;;;;;;;10.26;65.59;101033.56;5011150;28;106295;-69
2021/09/05 23:04:25;;;;;;;7.82;4.30;;;;;;;10.24;65.41;101035.53;5011079;28;105704;-68
2021/09/05 23:06:51;;;;;;;9.35;3.63;;;;;;;10.22;65.81;101037.50;5010896;28;105746;-68
2021/09/05 23:09:16;;;;;;;5.43;3.40;;;;;;;10.20;65.87;101036.78;5011916;28;105907;-69
2021/09/05 23:11:41;;;;;;;8.00;3.55;;;;;;;10.20;65.85;101040.31;5011219;28;106095;-69
2021/09/05 23:14:07;;;;;;;7.22;3.63;;;;;;;10.18;66.17;101036.94;5010522;28;105977;-69
2021/09/05 23:16:32;;;;;;;6.72;3.22;;;;;;;10.16;66.01;101036.28;5010710;28;105792;-70
2021/09/05 23:18:58;;;;;;;6.88;3.75;;;;;;;10.14;66.17;101036.41;5011581;28;106052;-70
2021/09/05 23:21:23;;;;;;;7.10;3.83;;;;;;;10.12;66.11;101032.22;5010588;28;106243;-69
2021/09/05 23:23:49;;;;;;;9.32;3.40;;;;;;;10.09;66.22;101036.00;5010452;28;110003;-69
2021/09/05 23:26:14;;;;;;;6.13;3.53;;;;;;;10.09;66.34;101035.19;4996021;28;105961;-68
2021/09/05 23:28:39;;;;;;;6.82;3.92;;;;;;;10.05;66.38;101034.63;4990781;28;106416;-69
2021/09/05 23:31:05;;;;;;;6.35;3.72;;;;;;;10.03;66.52;101039.25;4990271;28;106149;-67
2021/09/05 23:33:31;;;;;;;6.65;3.97;;;;;;;10.02;66.54;101031.41;4990060;28;107383;-69
2021/09/05 23:35:56;;;;;;;8.55;3.78;;;;;;;9.99;66.66;101036.06;4990251;28;106486;-70
2021/09/05 23:38:21;;;;;;;7.30;3.53;;;;;;;9.95;66.71;101031.16;4990258;28;106189;-70
2021/09/05 23:40:47;;;;;;;7.35;3.70;;;;;;;9.93;66.50;101033.13;4990314;28;106434;-70
2021/09/05 23:43:12;;;;;;;7.40;3.90;;;;;;;9.91;66.79;101035.94;4989953;28;106736;-71
2021/09/05 23:45:37;;;;;;;7.05;3.80;;;;;;;9.89;66.76;101027.25;4989690;28;106049;-69
2021/09/05 23:48:03;;;;;;;5.78;3.53;;;;;;;9.88;66.72;101036.22;4990657;28;106495;-71
2021/09/05 23:50:28;;;;;;;5.45;3.50;;;;;;;9.85;66.90;101030.34;4989849;28;106247;-68
2021/09/05 23:52:54;;;;;;;7.72;3.75;;;;;;;9.84;67.20;101034.81;4989651;28;106133;-70
2021/09/05 23:55:19;;;;;;;7.47;3.75;;;;;;;9.81;67.26;101030.66;4989436;28;106129;-69
2021/09/05 23:57:44;;;;;;;6.18;3.92;;;;;;;9.79;67.24;101027.28;4990378;28;106090;-68
